sensor_id;sensor_type;location;lat;lon;timestamp;temperature;humidity
52397;DHT22;38322;53.108;6.308;2024-01-30T06:01:14;6.30;99.90
52397;DHT22;38322;53.108;6.308;2024-01-30T06:03:40;6.30;99.90
52397;DHT22;38322;53.108;6.308;2024-01-30T06:06:06;6.30;99.90
52397;DHT22;38322;53.108;6.308;2024-01-30T06:08:31;6.30;99.90
52397;DHT22;38322;53.108;6.308;2024-01-30T06:10:57;6.30;99.90
52397;DHT22;38322;53.108;6.308;2024-01-30T06:13:23;6.40;99.90
52397;DHT22;38322;53.108;6.308;2024-01-30T06:15:49;6.40;99.90
52397;DHT22;38322;53.108;6.308;2024-01-30T06:18:15;6.40;99.90
52397;DHT22;38322;53.108;6.308;2024-01-30T06:20:40;6.40;99.90
52397;DHT22;38322;53.108;6.308;2024-01-30T06:23:06;6.40;99.90
52397;DHT22;38322;53.108;6.308;2024-01-30T06:25:32;6.40;99.90
52397;DHT22;38322;53.108;6.308;2024-01-30T06:27:58;6.50;99.90
52397;DHT22;38322;53.108;6.308;2024-01-30T06:30:23;6.40;99.90
52397;DHT22;38322;53.108;6.308;2024-01-30T06:32:49;6.50;99.90
52397;DHT22;38322;53.108;6.308;2024-01-30T06:35:15;6.50;99.90
52397;DHT22;38322;53.108;6.308;2024-01-30T06:37:43;6.50;99.90
52397;DHT22;38322;53.108;6.308;2024-01-30T06:40:09;6.50;99.90
52397;DHT22;38322;53.108;6.308;2024-01-30T06:42:35;6.40;99.90
52397;DHT22;38322;53.108;6.308;2024-01-30T06:45:00;6.40;99.90
52397;DHT22;38322;53.108;6.308;2024-01-30T06:47:26;6.40;99.90
52397;DHT22;38322;53.108;6.308;2024-01-30T06:49:52;6.40;99.90
52397;DHT22;38322;53.108;6.308;2024-01-30T06:52:18;6.40;99.90
52397;DHT22;38322;53.108;6.308;2024-01-30T06:54:43;6.40;99.90
52397;DHT22;38322;53.108;6.308;2024-01-30T06:57:09;6.50;99.90
52397;DHT22;38322;53.108;6.308;2024-01-30T06:59:37;6.50;99.90
52397;DHT22;38322;53.108;6.308;2024-01-30T07:02:09;6.50;99.90
52397;DHT22;38322;53.108;6.308;2024-01-30T07:04:36;6.50;99.90
52397;DHT22;38322;53.108;6.308;2024-01-30T07:07:03;6.50;99.90
52397;DHT22;38322;53.108;6.308;2024-01-30T07:09:30;6.50;99.90
52397;DHT22;38322;53.108;6.308;2024-01-30T07:11:56;6.50;99.90
52397;DHT22;38322;53.108;6.308;2024-01-30T07:14:24;6.60;99.90
52397;DHT22;38322;53.108;6.308;2024-01-30T07:16:50;6.60;99.90
52397;DHT22;38322;53.108;6.308;2024-01-30T07:19:16;6.60;99.90
52397;DHT22;38322;53.108;6.308;2024-01-30T07:21:42;6.60;99.90
52397;DHT22;38322;53.108;6.308;2024-01-30T07:24:08;6.60;99.90
52397;DHT22;38322;53.108;6.308;2024-01-30T07:26:33;6.60;99.90
52397;DHT22;38322;53.108;6.308;2024-01-30T07:29:01;6.60;99.90
52397;DHT22;38322;53.108;6.308;2024-01-30T07:31:27;6.60;99.90
52397;DHT22;38322;53.108;6.308;2024-01-30T07:33:53;6.70;99.90
52397;DHT22;38322;53.108;6.308;2024-01-30T07:36:20;6.70;99.90
52397;DHT22;38322;53.108;6.308;2024-01-30T07:38:46;6.70;99.90
52397;DHT22;38322;53.108;6.308;2024-01-30T07:41:11;6.80;99.90
52397;DHT22;38322;53.108;6.308;2024-01-30T07:43:38;6.80;99.90
52397;DHT22;38322;53.108;6.308;2024-01-30T07:46:04;6.80;99.90
52397;DHT22;38322;53.108;6.308;2024-01-30T07:48:33;6.80;99.90
52397;DHT22;38322;53.108;6.308;2024-01-30T07:51:00;6.90;99.90
52397;DHT22;38322;53.108;6.308;2024-01-30T07:53:25;6.90;99.90
52397;DHT22;38322;53.108;6.308;2024-01-30T07:55:52;7.00;99.90
52397;DHT22;38322;53.108;6.308;2024-01-30T07:58:18;7.00;99.90
52397;DHT22;38322;53.108;6.308;2024-01-30T08:00:44;7.00;99.90
52397;DHT22;38322;53.108;6.308;2024-01-30T08:03:10;7.00;99.90
52397;DHT22;38322;53.108;6.308;2024-01-30T08:05:36;7.00;99.90
52397;DHT22;38322;53.108;6.308;2024-01-30T08:08:02;7.00;99.90
52397;DHT22;38322;53.108;6.308;2024-01-30T08:10:28;7.00;99.90
52397;DHT22;38322;53.108;6.308;2024-01-30T08:12:53;7.00;99.90
52397;DHT22;38322;53.108;6.308;2024-01-30T08:15:19;7.00;99.90
52397;DHT22;38322;53.108;6.308;2024-01-30T08:17:45;7.00;99.90
52397;DHT22;38322;53.108;6.308;2024-01-30T08:20:11;7.00;99.90
52397;DHT22;38322;53.108;6.308;2024-01-30T08:22:40;7.10;99.90
52397;DHT22;38322;53.108;6.308;2024-01-30T08:25:07;7.10;99.90
52397;DHT22;38322;53.108;6.308;2024-01-30T08:27:33;7.10;99.90
52397;DHT22;38322;53.108;6.308;2024-01-30T08:30:01;7.10;99.90
52397;DHT22;38322;53.108;6.308;2024-01-30T08:32:27;7.10;99.90
52397;DHT22;38322;53.108;6.308;2024-01-30T08:34:53;7.20;99.90
52397;DHT22;38322;53.108;6.308;2024-01-30T08:37:19;7.30;99.90
52397;DHT22;38322;53.108;6.308;2024-01-30T08:39:44;7.30;99.90
52397;DHT22;38322;53.108;6.308;2024-01-30T08:42:10;7.40;99.90
52397;DHT22;38322;53.108;6.308;2024-01-30T08:44:36;7.40;99.90
52397;DHT22;38322;53.108;6.308;2024-01-30T08:47:02;7.60;99.90
52397;DHT22;38322;53.108;6.308;2024-01-30T08:49:28;7.60;99.90
52397;DHT22;38322;53.108;6.308;2024-01-30T08:51:54;7.60;99.90
52397;DHT22;38322;53.108;6.308;2024-01-30T08:54:20;7.70;99.90
52397;DHT22;38322;53.108;6.308;2024-01-30T08:56:46;7.80;99.90
52397;DHT22;38322;53.108;6.308;2024-01-30T08:59:11;7.80;99.90
52397;DHT22;38322;53.108;6.308;2024-01-30T09:01:37;7.80;99.90
52397;DHT22;38322;53.108;6.308;2024-01-30T09:04:03;7.90;99.90
52397;DHT22;38322;53.108;6.308;2024-01-30T09:06:29;7.90;99.90
52397;DHT22;38322;53.108;6.308;2024-01-30T09:08:55;8.00;99.90
52397;DHT22;38322;53.108;6.308;2024-01-30T09:11:23;8.00;99.90
52397;DHT22;38322;53.108;6.308;2024-01-30T09:13:49;8.10;99.90
52397;DHT22;38322;53.108;6.308;2024-01-30T09:16:15;8.10;99.90
52397;DHT22;38322;53.108;6.308;2024-01-30T09:18:42;8.10;99.90
52397;DHT22;38322;53.108;6.308;2024-01-30T09:21:07;8.20;99.90
52397;DHT22;38322;53.108;6.308;2024-01-30T09:23:33;8.30;99.90
52397;DHT22;38322;53.108;6.308;2024-01-30T09:25:59;8.30;99.90
52397;DHT22;38322;53.108;6.308;2024-01-30T09:28:25;8.40;99.90
52397;DHT22;38322;53.108;6.308;2024-01-30T09:30:52;8.50;99.90
52397;DHT22;38322;53.108;6.308;2024-01-30T09:33:17;8.50;99.90
52397;DHT22;38322;53.108;6.308;2024-01-30T09:35:43;8.50;99.90
52397;DHT22;38322;53.108;6.308;2024-01-30T09:38:09;8.50;99.90
52397;DHT22;38322;53.108;6.308;2024-01-30T09:40:36;8.60;99.90
52397;DHT22;38322;53.108;6.308;2024-01-30T09:43:02;8.60;99.90
52397;DHT22;38322;53.108;6.308;2024-01-30T09:45:27;8.60;99.90
52397;DHT22;38322;53.108;6.308;2024-01-30T09:47:53;8.60;99.90
52397;DHT22;38322;53.108;6.308;2024-01-30T09:50:20;8.60;99.90
52397;DHT22;38322;53.108;6.308;2024-01-30T09:52:46;8.60;99.90
52397;DHT22;38322;53.108;6.308;2024-01-30T09:55:12;8.70;99.90
52397;DHT22;38322;53.108;6.308;2024-01-30T09:57:38;8.70;99.90
52397;DHT22;38322;53.108;6.308;2024-01-30T10:00:05;8.70;99.90
52397;DHT22;38322;53.108;6.308;2024-01-30T10:02:34;8.80;99.90
52397;DHT22;38322;53.108;6.308;2024-01-30T10:05:01;8.90;99.90
52397;DHT22;38322;53.108;6.308;2024-01-30T10:07:27;8.90;99.90
52397;DHT22;38322;53.108;6.308;2024-01-30T10:09:55;9.00;99.90
52397;DHT22;38322;53.108;6.308;2024-01-30T10:12:22;9.00;99.90
52397;DHT22;38322;53.108;6.308;2024-01-30T10:14:48;9.00;99.90
52397;DHT22;38322;53.108;6.308;2024-01-30T10:17:14;9.00;99.90
52397;DHT22;38322;53.108;6.308;2024-01-30T10:19:40;9.00;99.90
52397;DHT22;38322;53.108;6.308;2024-01-30T10:22:07;9.00;99.90
52397;DHT22;38322;53.108;6.308;2024-01-30T10:24:36;9.00;99.90
52397;DHT22;38322;53.108;6.308;2024-01-30T10:27:02;9.00;99.90
52397;DHT22;38322;53.108;6.308;2024-01-30T10:29:29;9.00;99.90
52397;DHT22;38322;53.108;6.308;2024-01-30T10:32:02;9.00;99.90
52397;DHT22;38322;53.108;6.308;2024-01-30T10:34:28;9.00;99.90
52397;DHT22;38322;53.108;6.308;2024-01-30T10:37:09;9.00;99.90
52397;DHT22;38322;53.108;6.308;2024-01-30T10:39:41;8.90;99.90
52397;DHT22;38322;53.108;6.308;2024-01-30T10:42:28;9.00;99.90
52397;DHT22;38322;53.108;6.308;2024-01-30T10:47:27;9.10;99.90
52397;DHT22;38322;53.108;6.308;2024-01-30T10:49:55;9.10;99.90
52397;DHT22;38322;53.108;6.308;2024-01-30T10:52:21;9.10;99.90
52397;DHT22;38322;53.108;6.308;2024-01-30T10:54:49;9.10;99.90
52397;DHT22;38322;53.108;6.308;2024-01-30T10:57:15;9.10;99.90
52397;DHT22;38322;53.108;6.308;2024-01-30T10:59:43;9.20;99.90
52397;DHT22;38322;53.108;6.308;2024-01-30T11:02:10;9.30;99.90
52397;DHT22;38322;53.108;6.308;2024-01-30T11:04:37;9.30;99.90
52397;DHT22;38322;53.108;6.308;2024-01-30T11:07:13;9.30;99.90
52397;DHT22;38322;53.108;6.308;2024-01-30T11:09:40;9.40;99.90
52397;DHT22;38322;53.108;6.308;2024-01-30T11:12:12;9.40;99.90
52397;DHT22;38322;53.108;6.308;2024-01-30T11:14:38;9.40;99.90
52397;DHT22;38322;53.108;6.308;2024-01-30T11:17:06;9.40;99.90
52397;DHT22;38322;53.108;6.308;2024-01-30T11:19:32;9.40;99.90
52397;DHT22;38322;53.108;6.308;2024-01-30T11:21:59;9.40;99.90
52397;DHT22;38322;53.108;6.308;2024-01-30T11:24:27;9.40;99.90
52397;DHT22;38322;53.108;6.308;2024-01-30T11:26:56;9.40;99.90
52397;DHT22;38322;53.108;6.308;2024-01-30T11:29:27;9.40;99.90
52397;DHT22;38322;53.108;6.308;2024-01-30T11:31:58;9.30;99.90
52397;DHT22;38322;53.108;6.308;2024-01-30T11:34:24;9.30;99.90
52397;DHT22;38322;53.108;6.308;2024-01-30T11:36:57;9.40;99.90
52397;DHT22;38322;53.108;6.308;2024-01-30T11:39:25;9.40;99.90
52397;DHT22;38322;53.108;6.308;2024-01-30T11:41:52;9.40;99.90
52397;DHT22;38322;53.108;6.308;2024-01-30T11:44:19;9.40;99.90
52397;DHT22;38322;53.108;6.308;2024-01-30T11:46:48;9.40;99.90
52397;DHT22;38322;53.108;6.308;2024-01-30T11:49:14;9.40;99.90
52397;DHT22;38322;53.108;6.308;2024-01-30T11:51:40;9.30;99.90
52397;DHT22;38322;53.108;6.308;2024-01-30T11:54:06;9.30;99.90
52397;DHT22;38322;53.108;6.308;2024-01-30T11:56:32;9.30;99.90
52397;DHT22;38322;53.108;6.308;2024-01-30T11:58:58;9.30;99.90
52397;DHT22;38322;53.108;6.308;2024-01-30T12:01:26;9.30;99.90
52397;DHT22;38322;53.108;6.308;2024-01-30T12:03:52;9.30;99.90
52397;DHT22;38322;53.108;6.308;2024-01-30T12:06:18;9.20;99.90
52397;DHT22;38322;53.108;6.308;2024-01-30T12:08:59;9.30;99.90
52397;DHT22;38322;53.108;6.308;2024-01-30T12:11:26;9.30;99.90
52397;DHT22;38322;53.108;6.308;2024-01-30T12:13:52;9.30;99.90
52397;DHT22;38322;53.108;6.308;2024-01-30T12:16:19;9.30;99.90
52397;DHT22;38322;53.108;6.308;2024-01-30T12:18:48;9.30;99.90
52397;DHT22;38322;53.108;6.308;2024-01-30T12:21:17;9.30;99.90
52397;DHT22;38322;53.108;6.308;2024-01-30T12:23:46;9.30;99.90
52397;DHT22;38322;53.108;6.308;2024-01-30T12:26:12;9.30;99.90
52397;DHT22;38322;53.108;6.308;2024-01-30T12:28:48;9.30;99.90
52397;DHT22;38322;53.108;6.308;2024-01-30T12:31:14;9.30;99.90
52397;DHT22;38322;53.108;6.308;2024-01-30T12:33:40;9.20;99.90
52397;DHT22;38322;53.108;6.308;2024-01-30T12:36:06;9.20;99.90
52397;DHT22;38322;53.108;6.308;2024-01-30T12:38:32;9.20;99.90
52397;DHT22;38322;53.108;6.308;2024-01-30T12:40:58;9.20;99.90
52397;DHT22;38322;53.108;6.308;2024-01-30T12:43:25;9.20;99.90
52397;DHT22;38322;53.108;6.308;2024-01-30T12:45:52;9.20;99.90
52397;DHT22;38322;53.108;6.308;2024-01-30T12:48:18;9.20;99.90
52397;DHT22;38322;53.108;6.308;2024-01-30T12:50:44;9.20;99.90
52397;DHT22;38322;53.108;6.308;2024-01-30T12:53:10;9.20;99.90
52397;DHT22;38322;53.108;6.308;2024-01-30T12:55:37;9.20;99.90
52397;DHT22;38322;53.108;6.308;2024-01-30T12:58:03;9.30;99.90
52397;DHT22;38322;53.108;6.308;2024-01-30T13:00:29;9.30;99.90
52397;DHT22;38322;53.108;6.308;2024-01-30T13:02:55;9.30;99.90
52397;DHT22;38322;53.108;6.308;2024-01-30T13:05:21;9.30;99.90
52397;DHT22;38322;53.108;6.308;2024-01-30T13:07:47;9.30;99.90
52397;DHT22;38322;53.108;6.308;2024-01-30T13:10:13;9.30;99.90
52397;DHT22;38322;53.108;6.308;2024-01-30T13:12:39;9.30;99.90
52397;DHT22;38322;53.108;6.308;2024-01-30T13:15:05;9.20;99.90
52397;DHT22;38322;53.108;6.308;2024-01-30T13:17:31;9.20;99.90
52397;DHT22;38322;53.108;6.308;2024-01-30T13:19:57;9.20;99.90
52397;DHT22;38322;53.108;6.308;2024-01-30T13:22:23;9.20;99.90
52397;DHT22;38322;53.108;6.308;2024-01-30T13:24:50;9.20;99.90
52397;DHT22;38322;53.108;6.308;2024-01-30T13:27:16;9.20;99.90
52397;DHT22;38322;53.108;6.308;2024-01-30T13:29:42;9.20;99.90
52397;DHT22;38322;53.108;6.308;2024-01-30T13:32:08;9.10;99.90
52397;DHT22;38322;53.108;6.308;2024-01-30T13:34:33;9.10;99.90
52397;DHT22;38322;53.108;6.308;2024-01-30T13:36:59;9.20;99.90
52397;DHT22;38322;53.108;6.308;2024-01-30T13:39:25;9.10;99.90
52397;DHT22;38322;53.108;6.308;2024-01-30T13:41:51;9.10;99.90
52397;DHT22;38322;53.108;6.308;2024-01-30T13:44:17;9.10;99.90
52397;DHT22;38322;53.108;6.308;2024-01-30T13:46:43;9.10;99.90
52397;DHT22;38322;53.108;6.308;2024-01-30T13:49:09;9.10;99.90
52397;DHT22;38322;53.108;6.308;2024-01-30T13:51:35;9.10;99.90
52397;DHT22;38322;53.108;6.308;2024-01-30T13:54:01;9.00;99.90
52397;DHT22;38322;53.108;6.308;2024-01-30T13:56:27;9.00;99.90
52397;DHT22;38322;53.108;6.308;2024-01-30T13:58:53;8.90;99.90
52397;DHT22;38322;53.108;6.308;2024-01-30T14:01:21;8.80;99.90
52397;DHT22;38322;53.108;6.308;2024-01-30T14:03:47;8.80;99.90
52397;DHT22;38322;53.108;6.308;2024-01-30T14:06:12;8.70;99.90
52397;DHT22;38322;53.108;6.308;2024-01-30T14:08:38;8.70;99.90
52397;DHT22;38322;53.108;6.308;2024-01-30T14:11:04;8.60;99.90
52397;DHT22;38322;53.108;6.308;2024-01-30T14:13:30;8.60;99.90
52397;DHT22;38322;53.108;6.308;2024-01-30T14:15:58;8.50;99.90
52397;DHT22;38322;53.108;6.308;2024-01-30T14:18:24;8.50;99.90
52397;DHT22;38322;53.108;6.308;2024-01-30T14:20:51;8.40;99.90
52397;DHT22;38322;53.108;6.308;2024-01-30T14:23:17;8.40;99.90
52397;DHT22;38322;53.108;6.308;2024-01-30T14:25:43;8.40;99.90
52397;DHT22;38322;53.108;6.308;2024-01-30T14:28:09;8.30;99.90
52397;DHT22;38322;53.108;6.308;2024-01-30T14:30:35;8.30;99.90
52397;DHT22;38322;53.108;6.308;2024-01-30T14:33:01;8.20;99.90
52397;DHT22;38322;53.108;6.308;2024-01-30T14:35:27;8.20;99.90
52397;DHT22;38322;53.108;6.308;2024-01-30T14:37:53;8.20;99.90
52397;DHT22;38322;53.108;6.308;2024-01-30T14:40:19;8.20;99.90
52397;DHT22;38322;53.108;6.308;2024-01-30T14:42:45;8.20;99.90
52397;DHT22;38322;53.108;6.308;2024-01-30T14:45:11;8.10;99.90
52397;DHT22;38322;53.108;6.308;2024-01-30T14:47:37;8.20;99.90
52397;DHT22;38322;53.108;6.308;2024-01-30T14:50:04;8.10;99.90
52397;DHT22;38322;53.108;6.308;2024-01-30T14:52:31;8.10;99.90
52397;DHT22;38322;53.108;6.308;2024-01-30T14:54:57;8.10;99.90
52397;DHT22;38322;53.108;6.308;2024-01-30T14:57:24;8.10;99.90
52397;DHT22;38322;53.108;6.308;2024-01-30T14:59:50;8.10;99.90
52397;DHT22;38322;53.108;6.308;2024-01-30T15:02:16;8.10;99.90
52397;DHT22;38322;53.108;6.308;2024-01-30T15:04:42;8.10;99.90
52397;DHT22;38322;53.108;6.308;2024-01-30T15:07:08;8.10;99.90
52397;DHT22;38322;53.108;6.308;2024-01-30T15:09:34;8.10;99.90
52397;DHT22;38322;53.108;6.308;2024-01-30T15:12:00;8.00;99.90
52397;DHT22;38322;53.108;6.308;2024-01-30T15:14:26;8.00;99.90
52397;DHT22;38322;53.108;6.308;2024-01-30T15:16:52;8.00;99.90
52397;DHT22;38322;53.108;6.308;2024-01-30T15:19:17;8.00;99.90
52397;DHT22;38322;53.108;6.308;2024-01-30T15:21:43;8.00;99.90
52397;DHT22;38322;53.108;6.308;2024-01-30T15:24:09;8.00;99.90
52397;DHT22;38322;53.108;6.308;2024-01-30T15:26:38;8.00;99.90
52397;DHT22;38322;53.108;6.308;2024-01-30T15:29:04;8.00;99.90
52397;DHT22;38322;53.108;6.308;2024-01-30T15:31:30;7.90;99.90
52397;DHT22;38322;53.108;6.308;2024-01-30T15:33:55;7.90;99.90
52397;DHT22;38322;53.108;6.308;2024-01-30T15:36:22;7.90;99.90
52397;DHT22;38322;53.108;6.308;2024-01-30T15:38:48;7.90;99.90
52397;DHT22;38322;53.108;6.308;2024-01-30T15:41:14;7.90;99.90
52397;DHT22;38322;53.108;6.308;2024-01-30T15:43:40;7.90;99.90
52397;DHT22;38322;53.108;6.308;2024-01-30T15:46:06;7.90;99.90
52397;DHT22;38322;53.108;6.308;2024-01-30T15:48:31;7.90;99.90
52397;DHT22;38322;53.108;6.308;2024-01-30T15:50:57;7.90;99.90
52397;DHT22;38322;53.108;6.308;2024-01-30T15:53:23;7.90;99.90
52397;DHT22;38322;53.108;6.308;2024-01-30T15:55:52;7.80;99.90
52397;DHT22;38322;53.108;6.308;2024-01-30T15:58:18;7.80;99.90
52397;DHT22;38322;53.108;6.308;2024-01-30T16:00:44;7.80;99.90
52397;DHT22;38322;53.108;6.308;2024-01-30T16:03:09;7.80;99.90
52397;DHT22;38322;53.108;6.308;2024-01-30T16:05:35;7.80;99.90
52397;DHT22;38322;53.108;6.308;2024-01-30T16:08:01;7.80;99.90
52397;DHT22;38322;53.108;6.308;2024-01-30T16:10:27;7.70;99.90
52397;DHT22;38322;53.108;6.308;2024-01-30T16:12:53;7.70;99.90
52397;DHT22;38322;53.108;6.308;2024-01-30T16:15:19;7.70;99.90
52397;DHT22;38322;53.108;6.308;2024-01-30T16:17:45;7.70;99.90
52397;DHT22;38322;53.108;6.308;2024-01-30T16:20:11;7.60;99.90
52397;DHT22;38322;53.108;6.308;2024-01-30T16:22:40;7.60;99.90
52397;DHT22;38322;53.108;6.308;2024-01-30T16:25:06;7.50;99.90
52397;DHT22;38322;53.108;6.308;2024-01-30T16:27:32;7.50;99.90
52397;DHT22;38322;53.108;6.308;2024-01-30T16:29:57;7.40;99.90
52397;DHT22;38322;53.108;6.308;2024-01-30T16:32:23;7.40;99.90
52397;DHT22;38322;53.108;6.308;2024-01-30T16:34:49;7.40;99.90
52397;DHT22;38322;53.108;6.308;2024-01-30T16:37:15;7.40;99.90
52397;DHT22;38322;53.108;6.308;2024-01-30T16:39:41;7.40;99.90
52397;DHT22;38322;53.108;6.308;2024-01-30T16:42:07;7.30;99.90
52397;DHT22;38322;53.108;6.308;2024-01-30T16:44:33;7.30;99.90
52397;DHT22;38322;53.108;6.308;2024-01-30T16:46:59;7.30;99.90
52397;DHT22;38322;53.108;6.308;2024-01-30T16:49:25;7.30;99.90
52397;DHT22;38322;53.108;6.308;2024-01-30T16:51:51;7.30;99.90
52397;DHT22;38322;53.108;6.308;2024-01-30T16:54:16;7.20;99.90
52397;DHT22;38322;53.108;6.308;2024-01-30T16:56:42;7.20;99.90
52397;DHT22;38322;53.108;6.308;2024-01-30T16:59:17;7.20;99.90
52397;DHT22;38322;53.108;6.308;2024-01-30T17:01:43;7.20;99.90
52397;DHT22;38322;53.108;6.308;2024-01-30T17:04:11;7.20;99.90
52397;DHT22;38322;53.108;6.308;2024-01-30T17:06:37;7.20;99.90
52397;DHT22;38322;53.108;6.308;2024-01-30T17:09:03;7.10;99.90
52397;DHT22;38322;53.108;6.308;2024-01-30T17:11:29;7.20;99.90
52397;DHT22;38322;53.108;6.308;2024-01-30T17:13:55;7.10;99.90
52397;DHT22;38322;53.108;6.308;2024-01-30T17:16:20;7.10;99.90
52397;DHT22;38322;53.108;6.308;2024-01-30T17:18:46;7.10;99.90
52397;DHT22;38322;53.108;6.308;2024-01-30T17:21:20;7.10;99.90
52397;DHT22;38322;53.108;6.308;2024-01-30T17:23:46;7.10;99.90
52397;DHT22;38322;53.108;6.308;2024-01-30T17:26:11;7.00;99.90
52397;DHT22;38322;53.108;6.308;2024-01-30T17:28:37;7.10;99.90
52397;DHT22;38322;53.108;6.308;2024-01-30T17:31:03;7.00;99.90
52397;DHT22;38322;53.108;6.308;2024-01-30T17:33:31;7.00;99.90
52397;DHT22;38322;53.108;6.308;2024-01-30T17:35:57;7.00;99.90
52397;DHT22;38322;53.108;6.308;2024-01-30T17:38:22;7.00;99.90
52397;DHT22;38322;53.108;6.308;2024-01-30T17:40:48;7.00;99.90
52397;DHT22;38322;53.108;6.308;2024-01-30T17:43:17;7.00;99.90
52397;DHT22;38322;53.108;6.308;2024-01-30T17:45:43;7.00;99.90
52397;DHT22;38322;53.108;6.308;2024-01-30T17:48:09;7.00;99.90
52397;DHT22;38322;53.108;6.308;2024-01-30T17:50:35;7.00;99.90
52397;DHT22;38322;53.108;6.308;2024-01-30T17:53:01;7.00;99.90
52397;DHT22;38322;53.108;6.308;2024-01-30T17:55:26;7.00;99.90
52397;DHT22;38322;53.108;6.308;2024-01-30T17:57:52;6.90;99.90
52397;DHT22;38322;53.108;6.308;2024-01-30T18:00:18;7.00;99.90
52397;DHT22;38322;53.108;6.308;2024-01-30T18:02:44;6.90;99.90
52397;DHT22;38322;53.108;6.308;2024-01-30T18:05:13;6.90;99.90
52397;DHT22;38322;53.108;6.308;2024-01-30T18:07:39;6.90;99.90
52397;DHT22;38322;53.108;6.308;2024-01-30T18:10:08;6.90;99.90
52397;DHT22;38322;53.108;6.308;2024-01-30T18:12:34;6.90;99.90
52397;DHT22;38322;53.108;6.308;2024-01-30T18:15:02;6.90;99.90
52397;DHT22;38322;53.108;6.308;2024-01-30T18:17:28;6.90;99.90
52397;DHT22;38322;53.108;6.308;2024-01-30T18:19:54;6.90;99.90
52397;DHT22;38322;53.108;6.308;2024-01-30T18:22:20;6.90;99.90
52397;DHT22;38322;53.108;6.308;2024-01-30T18:24:45;6.80;99.90
52397;DHT22;38322;53.108;6.308;2024-01-30T18:27:11;6.80;99.90
52397;DHT22;38322;53.108;6.308;2024-01-30T18:29:37;6.80;99.90
52397;DHT22;38322;53.108;6.308;2024-01-30T18:32:03;6.80;99.90
52397;DHT22;38322;53.108;6.308;2024-01-30T18:34:29;6.80;99.90
52397;DHT22;38322;53.108;6.308;2024-01-30T18:36:55;6.70;99.90
52397;DHT22;38322;53.108;6.308;2024-01-30T18:39:26;6.70;99.90
52397;DHT22;38322;53.108;6.308;2024-01-30T18:41:52;6.70;99.90
52397;DHT22;38322;53.108;6.308;2024-01-30T18:44:17;6.70;99.90
52397;DHT22;38322;53.108;6.308;2024-01-30T18:46:43;6.70;99.90
52397;DHT22;38322;53.108;6.308;2024-01-30T18:49:09;6.70;99.90
52397;DHT22;38322;53.108;6.308;2024-01-30T18:51:35;6.60;99.90
52397;DHT22;38322;53.108;6.308;2024-01-30T18:54:01;6.60;99.90
52397;DHT22;38322;53.108;6.308;2024-01-30T18:56:26;6.70;99.90
52397;DHT22;38322;53.108;6.308;2024-01-30T18:58:52;6.60;99.90
52397;DHT22;38322;53.108;6.308;2024-01-30T19:01:19;6.60;99.90
52397;DHT22;38322;53.108;6.308;2024-01-30T19:03:46;6.60;99.90
52397;DHT22;38322;53.108;6.308;2024-01-30T19:06:12;6.60;99.90
52397;DHT22;38322;53.108;6.308;2024-01-30T19:08:38;6.60;99.90
52397;DHT22;38322;53.108;6.308;2024-01-30T19:11:04;6.60;99.90
52397;DHT22;38322;53.108;6.308;2024-01-30T19:13:31;6.60;99.90
52397;DHT22;38322;53.108;6.308;2024-01-30T19:15:57;6.60;99.90
52397;DHT22;38322;53.108;6.308;2024-01-30T19:18:23;6.50;99.90
52397;DHT22;38322;53.108;6.308;2024-01-30T19:20:49;6.50;99.90
52397;DHT22;38322;53.108;6.308;2024-01-30T19:23:15;6.50;99.90
52397;DHT22;38322;53.108;6.308;2024-01-30T19:25:44;6.50;99.90
52397;DHT22;38322;53.108;6.308;2024-01-30T19:28:10;6.50;99.90
52397;DHT22;38322;53.108;6.308;2024-01-30T19:30:37;6.50;99.90
52397;DHT22;38322;53.108;6.308;2024-01-30T19:33:04;6.50;99.90
52397;DHT22;38322;53.108;6.308;2024-01-30T19:35:30;6.50;99.90
52397;DHT22;38322;53.108;6.308;2024-01-30T19:37:55;6.40;99.90
52397;DHT22;38322;53.108;6.308;2024-01-30T19:40:21;6.40;99.90
52397;DHT22;38322;53.108;6.308;2024-01-30T19:42:47;6.30;99.90
52397;DHT22;38322;53.108;6.308;2024-01-30T19:45:15;6.30;99.90
52397;DHT22;38322;53.108;6.308;2024-01-30T19:47:41;6.30;99.90
52397;DHT22;38322;53.108;6.308;2024-01-30T19:50:07;6.30;99.90
52397;DHT22;38322;53.108;6.308;2024-01-30T19:52:33;6.30;99.90
52397;DHT22;38322;53.108;6.308;2024-01-30T19:54:59;6.20;99.90
52397;DHT22;38322;53.108;6.308;2024-01-30T19:57:25;6.20;99.90
52397;DHT22;38322;53.108;6.308;2024-01-30T19:59:51;6.20;99.90
52397;DHT22;38322;53.108;6.308;2024-01-30T20:02:17;6.20;99.90
52397;DHT22;38322;53.108;6.308;2024-01-30T20:04:45;6.20;99.90
52397;DHT22;38322;53.108;6.308;2024-01-30T20:07:11;6.20;99.90
52397;DHT22;38322;53.108;6.308;2024-01-30T20:09:39;6.10;99.90
52397;DHT22;38322;53.108;6.308;2024-01-30T20:12:05;6.10;99.90
52397;DHT22;38322;53.108;6.308;2024-01-30T20:14:31;6.20;99.90
52397;DHT22;38322;53.108;6.308;2024-01-30T20:16:57;6.10;99.90
52397;DHT22;38322;53.108;6.308;2024-01-30T20:19:26;6.10;99.90
52397;DHT22;38322;53.108;6.308;2024-01-30T20:21:51;6.10;99.90
52397;DHT22;38322;53.108;6.308;2024-01-30T20:24:17;6.10;99.90
52397;DHT22;38322;53.108;6.308;2024-01-30T20:26:43;6.10;99.90
52397;DHT22;38322;53.108;6.308;2024-01-30T20:29:09;6.10;99.90
52397;DHT22;38322;53.108;6.308;2024-01-30T20:31:35;6.00;99.90
52397;DHT22;38322;53.108;6.308;2024-01-30T20:34:01;6.00;99.90
52397;DHT22;38322;53.108;6.308;2024-01-30T20:36:27;6.00;99.90
52397;DHT22;38322;53.108;6.308;2024-01-30T20:38:53;6.00;99.90
52397;DHT22;38322;53.108;6.308;2024-01-30T20:41:19;5.90;99.90
52397;DHT22;38322;53.108;6.308;2024-01-30T20:43:45;6.00;99.90
52397;DHT22;38322;53.108;6.308;2024-01-30T20:46:11;5.90;99.90
52397;DHT22;38322;53.108;6.308;2024-01-30T20:48:40;5.90;99.90
52397;DHT22;38322;53.108;6.308;2024-01-30T20:51:09;5.90;99.90
52397;DHT22;38322;53.108;6.308;2024-01-30T20:53:35;5.80;99.90
52397;DHT22;38322;53.108;6.308;2024-01-30T20:56:01;5.80;99.90
52397;DHT22;38322;53.108;6.308;2024-01-30T20:58:27;5.80;99.90
